sensor_id;sensor_type;location;lat;lon;timestamp;temperature;humidity
9049;DHT22;4559;47.252;9.592;2023-01-15T00:00:59;8.70;98.60
9049;DHT22;4559;47.252;9.592;2023-01-15T00:03:25;8.80;97.30
9049;DHT22;4559;47.252;9.592;2023-01-15T00:05:50;8.80;97.40
9049;DHT22;4559;47.252;9.592;2023-01-15T00:08:16;9.00;97.10
9049;DHT22;4559;47.252;9.592;2023-01-15T00:10:42;9.00;97.30
9049;DHT22;4559;47.252;9.592;2023-01-15T00:13:07;9.10;97.60
9049;DHT22;4559;47.252;9.592;2023-01-15T00:15:33;9.10;97.60
9049;DHT22;4559;47.252;9.592;2023-01-15T00:17:59;9.20;97.60
9049;DHT22;4559;47.252;9.592;2023-01-15T00:20:24;9.10;97.70
9049;DHT22;4559;47.252;9.592;2023-01-15T00:22:50;9.10;97.90
9049;DHT22;4559;47.252;9.592;2023-01-15T00:25:16;9.10;97.70
9049;DHT22;4559;47.252;9.592;2023-01-15T00:27:59;9.10;97.60
9049;DHT22;4559;47.252;9.592;2023-01-15T00:30:25;9.00;97.80
9049;DHT22;4559;47.252;9.592;2023-01-15T00:32:51;9.10;98.10
9049;DHT22;4559;47.252;9.592;2023-01-15T00:35:19;9.10;98.30
9049;DHT22;4559;47.252;9.592;2023-01-15T00:37:45;9.00;98.30
9049;DHT22;4559;47.252;9.592;2023-01-15T00:40:12;9.00;98.30
9049;DHT22;4559;47.252;9.592;2023-01-15T00:42:38;9.00;98.40
9049;DHT22;4559;47.252;9.592;2023-01-15T00:45:05;9.10;98.30
9049;DHT22;4559;47.252;9.592;2023-01-15T00:47:38;9.00;98.10
9049;DHT22;4559;47.252;9.592;2023-01-15T00:50:05;9.00;98.10
9049;DHT22;4559;47.252;9.592;2023-01-15T00:52:31;9.10;98.10
9049;DHT22;4559;47.252;9.592;2023-01-15T00:54:57;9.10;98.30
9049;DHT22;4559;47.252;9.592;2023-01-15T00:57:23;9.10;98.20
9049;DHT22;4559;47.252;9.592;2023-01-15T00:59:49;9.10;95.90
9049;DHT22;4559;47.252;9.592;2023-01-15T01:02:14;9.20;95.00
9049;DHT22;4559;47.252;9.592;2023-01-15T01:04:40;9.20;94.90
9049;DHT22;4559;47.252;9.592;2023-01-15T01:07:05;9.30;95.50
9049;DHT22;4559;47.252;9.592;2023-01-15T01:09:31;9.30;96.20
9049;DHT22;4559;47.252;9.592;2023-01-15T01:11:57;9.30;96.30
9049;DHT22;4559;47.252;9.592;2023-01-15T01:14:23;9.30;96.40
9049;DHT22;4559;47.252;9.592;2023-01-15T01:16:48;9.40;96.30
9049;DHT22;4559;47.252;9.592;2023-01-15T01:19:19;9.40;96.40
9049;DHT22;4559;47.252;9.592;2023-01-15T01:21:46;9.40;96.30
9049;DHT22;4559;47.252;9.592;2023-01-15T01:24:15;9.30;96.10
9049;DHT22;4559;47.252;9.592;2023-01-15T01:26:44;9.40;96.00
9049;DHT22;4559;47.252;9.592;2023-01-15T01:29:20;9.40;96.30
9049;DHT22;4559;47.252;9.592;2023-01-15T01:31:47;9.40;96.40
9049;DHT22;4559;47.252;9.592;2023-01-15T01:34:13;9.40;96.40
9049;DHT22;4559;47.252;9.592;2023-01-15T01:36:40;9.40;96.30
9049;DHT22;4559;47.252;9.592;2023-01-15T01:39:12;9.40;96.40
9049;DHT22;4559;47.252;9.592;2023-01-15T01:41:38;9.40;96.30
9049;DHT22;4559;47.252;9.592;2023-01-15T01:44:05;9.40;96.40
9049;DHT22;4559;47.252;9.592;2023-01-15T01:46:33;9.40;96.50
9049;DHT22;4559;47.252;9.592;2023-01-15T01:49:08;9.40;96.40
9049;DHT22;4559;47.252;9.592;2023-01-15T01:51:46;9.40;96.30
9049;DHT22;4559;47.252;9.592;2023-01-15T01:54:16;9.40;96.20
9049;DHT22;4559;47.252;9.592;2023-01-15T01:56:44;9.40;96.20
9049;DHT22;4559;47.252;9.592;2023-01-15T01:59:11;9.40;96.50
9049;DHT22;4559;47.252;9.592;2023-01-15T02:01:37;9.40;96.80
9049;DHT22;4559;47.252;9.592;2023-01-15T02:04:06;9.50;96.80
9049;DHT22;4559;47.252;9.592;2023-01-15T02:06:33;9.40;97.00
9049;DHT22;4559;47.252;9.592;2023-01-15T02:08:59;9.40;97.10
9049;DHT22;4559;47.252;9.592;2023-01-15T02:11:33;9.40;97.10
9049;DHT22;4559;47.252;9.592;2023-01-15T02:14:09;9.40;97.30
9049;DHT22;4559;47.252;9.592;2023-01-15T02:16:56;9.50;97.60
9049;DHT22;4559;47.252;9.592;2023-01-15T02:25:18;9.40;96.90
9049;DHT22;4559;47.252;9.592;2023-01-15T02:27:48;9.40;96.70
9049;DHT22;4559;47.252;9.592;2023-01-15T02:32:51;9.50;96.10
9049;DHT22;4559;47.252;9.592;2023-01-15T02:37:54;9.50;95.30
9049;DHT22;4559;47.252;9.592;2023-01-15T02:40:23;9.60;94.10
9049;DHT22;4559;47.252;9.592;2023-01-15T02:42:50;9.60;94.00
9049;DHT22;4559;47.252;9.592;2023-01-15T02:45:20;9.70;94.40
9049;DHT22;4559;47.252;9.592;2023-01-15T02:47:50;9.80;94.30
9049;DHT22;4559;47.252;9.592;2023-01-15T02:50:19;9.90;94.00
9049;DHT22;4559;47.252;9.592;2023-01-15T02:52:49;9.90;94.20
9049;DHT22;4559;47.252;9.592;2023-01-15T02:55:26;9.90;93.70
9049;DHT22;4559;47.252;9.592;2023-01-15T02:57:58;10.00;91.90
9049;DHT22;4559;47.252;9.592;2023-01-15T03:00:25;10.00;90.90
9049;DHT22;4559;47.252;9.592;2023-01-15T03:03:02;10.10;90.90
9049;DHT22;4559;47.252;9.592;2023-01-15T03:05:53;10.20;90.90
9049;DHT22;4559;47.252;9.592;2023-01-15T03:08:22;10.20;90.40
9049;DHT22;4559;47.252;9.592;2023-01-15T03:11:27;10.30;90.20
9049;DHT22;4559;47.252;9.592;2023-01-15T03:16:43;10.30;89.30
9049;DHT22;4559;47.252;9.592;2023-01-15T03:22:26;10.40;90.30
9049;DHT22;4559;47.252;9.592;2023-01-15T03:27:33;10.60;89.90
9049;DHT22;4559;47.252;9.592;2023-01-15T03:30:12;10.60;90.20
9049;DHT22;4559;47.252;9.592;2023-01-15T03:32:38;10.60;89.50
9049;DHT22;4559;47.252;9.592;2023-01-15T03:35:06;10.70;89.30
9049;DHT22;4559;47.252;9.592;2023-01-15T03:37:32;10.60;90.30
9049;DHT22;4559;47.252;9.592;2023-01-15T03:39:58;10.70;90.10
9049;DHT22;4559;47.252;9.592;2023-01-15T03:56:23;10.80;87.40
9049;DHT22;4559;47.252;9.592;2023-01-15T03:58:57;10.80;86.90
9049;DHT22;4559;47.252;9.592;2023-01-15T04:01:31;10.80;85.90
9049;DHT22;4559;47.252;9.592;2023-01-15T04:03:58;10.80;85.80
9049;DHT22;4559;47.252;9.592;2023-01-15T04:06:27;10.80;85.80
9049;DHT22;4559;47.252;9.592;2023-01-15T04:08:54;10.80;84.90
9049;DHT22;4559;47.252;9.592;2023-01-15T04:11:22;10.80;85.00
9049;DHT22;4559;47.252;9.592;2023-01-15T04:13:49;10.90;84.40
9049;DHT22;4559;47.252;9.592;2023-01-15T04:16:17;10.90;84.10
9049;DHT22;4559;47.252;9.592;2023-01-15T04:18:45;11.00;83.70
9049;DHT22;4559;47.252;9.592;2023-01-15T04:21:11;11.00;84.00
9049;DHT22;4559;47.252;9.592;2023-01-15T04:23:36;11.00;84.10
9049;DHT22;4559;47.252;9.592;2023-01-15T04:26:02;11.00;84.70
9049;DHT22;4559;47.252;9.592;2023-01-15T04:28:27;11.00;81.00
9049;DHT22;4559;47.252;9.592;2023-01-15T04:30:56;11.00;81.60
9049;DHT22;4559;47.252;9.592;2023-01-15T04:33:21;11.10;81.50
9049;DHT22;4559;47.252;9.592;2023-01-15T04:35:47;11.10;80.80
9049;DHT22;4559;47.252;9.592;2023-01-15T04:38:12;11.10;81.00
9049;DHT22;4559;47.252;9.592;2023-01-15T04:40:38;11.20;80.90
9049;DHT22;4559;47.252;9.592;2023-01-15T04:43:22;11.30;77.90
9049;DHT22;4559;47.252;9.592;2023-01-15T04:46:06;11.40;76.00
9049;DHT22;4559;47.252;9.592;2023-01-15T04:48:31;11.50;75.90
9049;DHT22;4559;47.252;9.592;2023-01-15T04:51:01;11.50;75.90
9049;DHT22;4559;47.252;9.592;2023-01-15T04:53:27;11.50;76.90
9049;DHT22;4559;47.252;9.592;2023-01-15T04:56:04;11.50;76.80
9049;DHT22;4559;47.252;9.592;2023-01-15T04:58:31;11.40;77.30
9049;DHT22;4559;47.252;9.592;2023-01-15T05:00:57;11.50;76.00
9049;DHT22;4559;47.252;9.592;2023-01-15T05:03:25;11.60;75.00
9049;DHT22;4559;47.252;9.592;2023-01-15T05:05:51;11.60;75.00
9049;DHT22;4559;47.252;9.592;2023-01-15T05:08:16;11.60;76.00
9049;DHT22;4559;47.252;9.592;2023-01-15T05:10:42;11.60;76.60
9049;DHT22;4559;47.252;9.592;2023-01-15T05:13:07;11.60;76.20
9049;DHT22;4559;47.252;9.592;2023-01-15T05:15:33;11.50;77.00
9049;DHT22;4559;47.252;9.592;2023-01-15T05:17:59;11.50;77.30
9049;DHT22;4559;47.252;9.592;2023-01-15T05:20:24;11.50;77.70
9049;DHT22;4559;47.252;9.592;2023-01-15T05:22:50;11.50;79.00
9049;DHT22;4559;47.252;9.592;2023-01-15T05:25:15;11.50;80.40
9049;DHT22;4559;47.252;9.592;2023-01-15T05:27:41;11.50;83.00
9049;DHT22;4559;47.252;9.592;2023-01-15T05:30:10;11.50;81.80
9049;DHT22;4559;47.252;9.592;2023-01-15T05:32:36;11.50;81.00
9049;DHT22;4559;47.252;9.592;2023-01-15T05:35:01;11.40;79.90
9049;DHT22;4559;47.252;9.592;2023-01-15T05:37:30;11.50;78.80
9049;DHT22;4559;47.252;9.592;2023-01-15T05:39:56;11.50;79.50
9049;DHT22;4559;47.252;9.592;2023-01-15T05:42:21;11.40;80.60
9049;DHT22;4559;47.252;9.592;2023-01-15T05:44:47;11.40;79.50
9049;DHT22;4559;47.252;9.592;2023-01-15T05:47:12;11.30;81.80
9049;DHT22;4559;47.252;9.592;2023-01-15T05:49:39;11.30;83.20
9049;DHT22;4559;47.252;9.592;2023-01-15T05:52:04;11.30;84.00
9049;DHT22;4559;47.252;9.592;2023-01-15T05:54:34;11.30;84.30
9049;DHT22;4559;47.252;9.592;2023-01-15T05:57:00;11.30;85.80
9049;DHT22;4559;47.252;9.592;2023-01-15T05:59:27;11.20;86.80
9049;DHT22;4559;47.252;9.592;2023-01-15T06:01:54;11.30;87.70
9049;DHT22;4559;47.252;9.592;2023-01-15T06:04:20;11.20;89.50
9049;DHT22;4559;47.252;9.592;2023-01-15T06:06:47;11.20;90.00
9049;DHT22;4559;47.252;9.592;2023-01-15T06:09:13;11.20;89.80
9049;DHT22;4559;47.252;9.592;2023-01-15T06:11:40;11.10;86.30
9049;DHT22;4559;47.252;9.592;2023-01-15T06:14:05;11.10;85.00
9049;DHT22;4559;47.252;9.592;2023-01-15T06:16:32;11.10;84.40
9049;DHT22;4559;47.252;9.592;2023-01-15T06:19:05;11.20;87.80
9049;DHT22;4559;47.252;9.592;2023-01-15T06:21:32;11.20;89.90
9049;DHT22;4559;47.252;9.592;2023-01-15T06:23:58;11.10;90.80
9049;DHT22;4559;47.252;9.592;2023-01-15T06:26:24;11.10;92.20
9049;DHT22;4559;47.252;9.592;2023-01-15T06:28:49;11.00;93.30
9049;DHT22;4559;47.252;9.592;2023-01-15T06:31:18;10.90;94.10
9049;DHT22;4559;47.252;9.592;2023-01-15T06:33:44;10.90;94.80
9049;DHT22;4559;47.252;9.592;2023-01-15T06:36:14;10.80;95.20
9049;DHT22;4559;47.252;9.592;2023-01-15T06:38:41;10.70;96.30
9049;DHT22;4559;47.252;9.592;2023-01-15T06:41:13;10.60;96.50
9049;DHT22;4559;47.252;9.592;2023-01-15T06:43:58;10.50;96.70
9049;DHT22;4559;47.252;9.592;2023-01-15T06:46:47;10.50;95.80
9049;DHT22;4559;47.252;9.592;2023-01-15T06:49:33;10.40;96.10
9049;DHT22;4559;47.252;9.592;2023-01-15T06:52:00;10.40;96.30
9049;DHT22;4559;47.252;9.592;2023-01-15T06:54:26;10.30;96.60
9049;DHT22;4559;47.252;9.592;2023-01-15T06:56:51;10.20;96.60
9049;DHT22;4559;47.252;9.592;2023-01-15T06:59:18;10.20;97.00
9049;DHT22;4559;47.252;9.592;2023-01-15T07:01:44;10.10;97.60
9049;DHT22;4559;47.252;9.592;2023-01-15T07:04:09;10.10;98.10
9049;DHT22;4559;47.252;9.592;2023-01-15T07:06:35;10.10;98.80
9049;DHT22;4559;47.252;9.592;2023-01-15T07:09:01;10.10;99.30
9049;DHT22;4559;47.252;9.592;2023-01-15T07:11:26;10.10;99.50
9049;DHT22;4559;47.252;9.592;2023-01-15T07:13:52;10.10;99.90
9049;DHT22;4559;47.252;9.592;2023-01-15T07:16:34;10.00;99.90
9049;DHT22;4559;47.252;9.592;2023-01-15T07:19:00;9.90;99.90
9049;DHT22;4559;47.252;9.592;2023-01-15T07:21:26;9.80;99.90
9049;DHT22;4559;47.252;9.592;2023-01-15T07:23:52;9.80;99.90
9049;DHT22;4559;47.252;9.592;2023-01-15T07:26:18;9.80;99.90
9049;DHT22;4559;47.252;9.592;2023-01-15T07:28:44;9.80;99.90
9049;DHT22;4559;47.252;9.592;2023-01-15T07:31:09;9.80;99.90
9049;DHT22;4559;47.252;9.592;2023-01-15T07:33:35;9.70;99.90
9049;DHT22;4559;47.252;9.592;2023-01-15T07:36:04;9.70;99.90
9049;DHT22;4559;47.252;9.592;2023-01-15T07:38:30;9.60;99.90
9049;DHT22;4559;47.252;9.592;2023-01-15T07:40:56;9.50;99.90
9049;DHT22;4559;47.252;9.592;2023-01-15T07:43:40;9.60;99.90
9049;DHT22;4559;47.252;9.592;2023-01-15T07:46:25;9.60;99.90
9049;DHT22;4559;47.252;9.592;2023-01-15T07:49:10;9.50;99.90
9049;DHT22;4559;47.252;9.592;2023-01-15T07:51:54;9.50;99.90
9049;DHT22;4559;47.252;9.592;2023-01-15T07:54:20;9.50;99.90
9049;DHT22;4559;47.252;9.592;2023-01-15T07:56:46;9.50;99.90
9049;DHT22;4559;47.252;9.592;2023-01-15T07:59:11;9.50;99.90
9049;DHT22;4559;47.252;9.592;2023-01-15T08:01:37;9.50;99.90
9049;DHT22;4559;47.252;9.592;2023-01-15T08:04:03;9.40;99.90
9049;DHT22;4559;47.252;9.592;2023-01-15T08:06:28;9.50;99.90
9049;DHT22;4559;47.252;9.592;2023-01-15T08:08:54;9.40;99.90
9049;DHT22;4559;47.252;9.592;2023-01-15T08:11:19;9.50;99.90
9049;DHT22;4559;47.252;9.592;2023-01-15T08:14:04;9.50;99.90
9049;DHT22;4559;47.252;9.592;2023-01-15T08:16:47;9.50;99.90
9049;DHT22;4559;47.252;9.592;2023-01-15T08:19:13;9.40;99.90
9049;DHT22;4559;47.252;9.592;2023-01-15T08:21:40;9.50;99.90
9049;DHT22;4559;47.252;9.592;2023-01-15T08:24:06;9.50;99.90
9049;DHT22;4559;47.252;9.592;2023-01-15T08:26:32;9.50;99.90
9049;DHT22;4559;47.252;9.592;2023-01-15T08:28:57;9.50;99.90
9049;DHT22;4559;47.252;9.592;2023-01-15T08:31:23;9.50;99.90
9049;DHT22;4559;47.252;9.592;2023-01-15T08:33:49;9.60;99.90
9049;DHT22;4559;47.252;9.592;2023-01-15T08:36:14;9.50;99.90
9049;DHT22;4559;47.252;9.592;2023-01-15T08:38:41;9.50;99.90
9049;DHT22;4559;47.252;9.592;2023-01-15T08:41:07;9.60;99.90
9049;DHT22;4559;47.252;9.592;2023-01-15T08:43:33;9.70;99.90
9049;DHT22;4559;47.252;9.592;2023-01-15T08:46:00;9.70;99.90
9049;DHT22;4559;47.252;9.592;2023-01-15T08:48:28;9.80;99.90
9049;DHT22;4559;47.252;9.592;2023-01-15T08:50:54;9.80;99.90
9049;DHT22;4559;47.252;9.592;2023-01-15T08:53:19;9.80;99.90
9049;DHT22;4559;47.252;9.592;2023-01-15T08:55:46;9.90;99.90
9049;DHT22;4559;47.252;9.592;2023-01-15T08:58:12;9.90;99.90
9049;DHT22;4559;47.252;9.592;2023-01-15T09:00:37;10.00;99.90
9049;DHT22;4559;47.252;9.592;2023-01-15T09:03:03;10.00;99.90
9049;DHT22;4559;47.252;9.592;2023-01-15T09:05:29;10.00;99.90
9049;DHT22;4559;47.252;9.592;2023-01-15T09:07:54;10.10;99.90
9049;DHT22;4559;47.252;9.592;2023-01-15T09:10:20;10.10;99.90
9049;DHT22;4559;47.252;9.592;2023-01-15T09:12:47;10.30;99.90
9049;DHT22;4559;47.252;9.592;2023-01-15T09:15:12;10.30;99.90
9049;DHT22;4559;47.252;9.592;2023-01-15T09:17:38;10.40;99.90
9049;DHT22;4559;47.252;9.592;2023-01-15T09:20:10;10.50;99.90
9049;DHT22;4559;47.252;9.592;2023-01-15T09:22:36;10.50;99.90
9049;DHT22;4559;47.252;9.592;2023-01-15T09:25:02;10.60;99.90
9049;DHT22;4559;47.252;9.592;2023-01-15T09:27:28;10.60;99.90
9049;DHT22;4559;47.252;9.592;2023-01-15T09:29:54;10.60;99.90
9049;DHT22;4559;47.252;9.592;2023-01-15T09:32:19;10.70;99.90
9049;DHT22;4559;47.252;9.592;2023-01-15T09:34:45;10.70;99.90
9049;DHT22;4559;47.252;9.592;2023-01-15T09:37:10;10.70;99.90
9049;DHT22;4559;47.252;9.592;2023-01-15T09:39:37;10.70;99.90
9049;DHT22;4559;47.252;9.592;2023-01-15T09:55:24;10.70;99.90
9049;DHT22;4559;47.252;9.592;2023-01-15T09:57:57;10.70;99.90
9049;DHT22;4559;47.252;9.592;2023-01-15T10:00:25;10.70;99.90
9049;DHT22;4559;47.252;9.592;2023-01-15T10:05:46;10.60;99.90
9049;DHT22;4559;47.252;9.592;2023-01-15T10:08:18;10.50;99.90
9049;DHT22;4559;47.252;9.592;2023-01-15T10:10:47;10.50;99.90
9049;DHT22;4559;47.252;9.592;2023-01-15T10:13:37;10.40;99.90
9049;DHT22;4559;47.252;9.592;2023-01-15T10:16:06;10.40;99.90
9049;DHT22;4559;47.252;9.592;2023-01-15T10:18:33;10.30;99.90
9049;DHT22;4559;47.252;9.592;2023-01-15T10:26:54;10.00;99.90
9049;DHT22;4559;47.252;9.592;2023-01-15T10:29:48;10.00;99.90
9049;DHT22;4559;47.252;9.592;2023-01-15T10:35:30;9.80;99.90
9049;DHT22;4559;47.252;9.592;2023-01-15T10:40:45;9.70;99.90
9049;DHT22;4559;47.252;9.592;2023-01-15T10:46:10;9.50;99.90
9049;DHT22;4559;47.252;9.592;2023-01-15T10:51:27;9.30;99.90
9049;DHT22;4559;47.252;9.592;2023-01-15T10:59:59;9.20;99.90
9049;DHT22;4559;47.252;9.592;2023-01-15T11:02:31;9.00;99.90
9049;DHT22;4559;47.252;9.592;2023-01-15T11:05:00;9.00;99.90
9049;DHT22;4559;47.252;9.592;2023-01-15T11:07:41;8.80;99.90
9049;DHT22;4559;47.252;9.592;2023-01-15T11:10:10;8.70;99.90
9049;DHT22;4559;47.252;9.592;2023-01-15T11:12:43;8.50;99.90
9049;DHT22;4559;47.252;9.592;2023-01-15T11:15:28;8.40;99.90
9049;DHT22;4559;47.252;9.592;2023-01-15T11:18:14;8.20;99.90
9049;DHT22;4559;47.252;9.592;2023-01-15T11:21:01;8.10;99.90
9049;DHT22;4559;47.252;9.592;2023-01-15T11:23:27;8.10;99.90
9049;DHT22;4559;47.252;9.592;2023-01-15T11:25:59;8.00;99.90
9049;DHT22;4559;47.252;9.592;2023-01-15T11:28:38;7.90;99.90
9049;DHT22;4559;47.252;9.592;2023-01-15T11:31:06;7.80;99.90
9049;DHT22;4559;47.252;9.592;2023-01-15T11:33:33;7.90;99.90
9049;DHT22;4559;47.252;9.592;2023-01-15T11:36:07;7.80;99.90
9049;DHT22;4559;47.252;9.592;2023-01-15T11:38:44;7.80;99.90
9049;DHT22;4559;47.252;9.592;2023-01-15T11:41:36;7.80;99.90
9049;DHT22;4559;47.252;9.592;2023-01-15T11:44:21;7.70;99.90
9049;DHT22;4559;47.252;9.592;2023-01-15T11:47:18;7.70;99.90
9049;DHT22;4559;47.252;9.592;2023-01-15T11:50:16;7.80;99.90
9049;DHT22;4559;47.252;9.592;2023-01-15T11:53:00;7.80;99.90
9049;DHT22;4559;47.252;9.592;2023-01-15T11:55:27;7.70;99.90
9049;DHT22;4559;47.252;9.592;2023-01-15T11:57:54;7.70;99.90
9049;DHT22;4559;47.252;9.592;2023-01-15T12:00:30;7.60;99.90
9049;DHT22;4559;47.252;9.592;2023-01-15T12:03:05;7.60;99.90
9049;DHT22;4559;47.252;9.592;2023-01-15T12:05:36;7.50;99.90
9049;DHT22;4559;47.252;9.592;2023-01-15T12:08:15;7.50;99.90
9049;DHT22;4559;47.252;9.592;2023-01-15T12:11:02;7.50;99.90
9049;DHT22;4559;47.252;9.592;2023-01-15T12:14:10;7.50;99.90
9049;DHT22;4559;47.252;9.592;2023-01-15T12:16:48;7.50;99.90
9049;DHT22;4559;47.252;9.592;2023-01-15T12:19:47;7.50;99.90
9049;DHT22;4559;47.252;9.592;2023-01-15T12:27:54;7.30;99.90
9049;DHT22;4559;47.252;9.592;2023-01-15T12:33:18;7.10;99.90
9049;DHT22;4559;47.252;9.592;2023-01-15T12:36:20;7.00;99.90
9049;DHT22;4559;47.252;9.592;2023-01-15T12:41:34;6.80;99.90
9049;DHT22;4559;47.252;9.592;2023-01-15T12:44:28;6.70;99.90
9049;DHT22;4559;47.252;9.592;2023-01-15T12:47:19;6.60;99.90
9049;DHT22;4559;47.252;9.592;2023-01-15T12:49:50;6.60;99.90
9049;DHT22;4559;47.252;9.592;2023-01-15T12:52:21;6.60;99.90
9049;DHT22;4559;47.252;9.592;2023-01-15T12:57:43;6.50;99.90
9049;DHT22;4559;47.252;9.592;2023-01-15T13:03:04;6.40;99.90
9049;DHT22;4559;47.252;9.592;2023-01-15T13:05:40;6.30;99.90
9049;DHT22;4559;47.252;9.592;2023-01-15T13:10:57;6.30;99.90
9049;DHT22;4559;47.252;9.592;2023-01-15T13:13:28;6.20;99.90
9049;DHT22;4559;47.252;9.592;2023-01-15T13:16:42;6.20;99.90
9049;DHT22;4559;47.252;9.592;2023-01-15T13:19:07;6.20;99.90
9049;DHT22;4559;47.252;9.592;2023-01-15T13:21:36;6.20;99.90
9049;DHT22;4559;47.252;9.592;2023-01-15T13:24:31;6.20;99.90
9049;DHT22;4559;47.252;9.592;2023-01-15T13:27:22;6.20;99.90
9049;DHT22;4559;47.252;9.592;2023-01-15T13:33:33;6.10;99.90
9049;DHT22;4559;47.252;9.592;2023-01-15T13:36:06;6.10;99.90
9049;DHT22;4559;47.252;9.592;2023-01-15T13:38:39;6.00;99.90
9049;DHT22;4559;47.252;9.592;2023-01-15T13:41:07;6.10;99.90
9049;DHT22;4559;47.252;9.592;2023-01-15T13:43:38;6.00;99.90
9049;DHT22;4559;47.252;9.592;2023-01-15T13:46:08;6.00;99.90
9049;DHT22;4559;47.252;9.592;2023-01-15T13:48:42;6.00;99.90
9049;DHT22;4559;47.252;9.592;2023-01-15T13:51:28;6.00;99.90
9049;DHT22;4559;47.252;9.592;2023-01-15T13:53:56;6.00;99.90
9049;DHT22;4559;47.252;9.592;2023-01-15T13:56:29;6.10;99.90
9049;DHT22;4559;47.252;9.592;2023-01-15T13:58:59;6.10;99.90
9049;DHT22;4559;47.252;9.592;2023-01-15T14:01:35;6.10;99.90
9049;DHT22;4559;47.252;9.592;2023-01-15T14:04:12;6.10;99.90
9049;DHT22;4559;47.252;9.592;2023-01-15T14:06:42;6.10;99.90
9049;DHT22;4559;47.252;9.592;2023-01-15T14:09:10;6.10;99.90
9049;DHT22;4559;47.252;9.592;2023-01-15T14:11:38;6.10;99.90
9049;DHT22;4559;47.252;9.592;2023-01-15T14:17:02;6.00;99.90
9049;DHT22;4559;47.252;9.592;2023-01-15T14:19:50;6.00;99.90
9049;DHT22;4559;47.252;9.592;2023-01-15T14:31:30;6.00;99.90
9049;DHT22;4559;47.252;9.592;2023-01-15T14:37:02;6.00;99.90
9049;DHT22;4559;47.252;9.592;2023-01-15T14:39:39;5.90;99.90
9049;DHT22;4559;47.252;9.592;2023-01-15T14:45:02;5.80;99.90
9049;DHT22;4559;47.252;9.592;2023-01-15T14:47:44;5.80;99.90
9049;DHT22;4559;47.252;9.592;2023-01-15T14:58:41;5.50;99.90
9049;DHT22;4559;47.252;9.592;2023-01-15T15:01:23;5.50;99.90
9049;DHT22;4559;47.252;9.592;2023-01-15T15:04:18;5.50;99.90
9049;DHT22;4559;47.252;9.592;2023-01-15T15:06:53;5.60;99.90
9049;DHT22;4559;47.252;9.592;2023-01-15T15:09:32;5.60;99.90
9049;DHT22;4559;47.252;9.592;2023-01-15T15:15:10;5.60;99.90
9049;DHT22;4559;47.252;9.592;2023-01-15T15:23:26;5.70;99.90
9049;DHT22;4559;47.252;9.592;2023-01-15T15:26:00;5.60;99.90
9049;DHT22;4559;47.252;9.592;2023-01-15T15:28:26;5.60;99.90
9049;DHT22;4559;47.252;9.592;2023-01-15T15:30:53;5.60;99.90
9049;DHT22;4559;47.252;9.592;2023-01-15T15:33:25;5.60;99.90
9049;DHT22;4559;47.252;9.592;2023-01-15T15:35:58;5.50;99.90
9049;DHT22;4559;47.252;9.592;2023-01-15T15:38:25;5.40;99.90
9049;DHT22;4559;47.252;9.592;2023-01-15T15:40:54;5.50;99.90
9049;DHT22;4559;47.252;9.592;2023-01-15T15:43:27;5.50;99.90
9049;DHT22;4559;47.252;9.592;2023-01-15T15:46:30;5.60;99.90
9049;DHT22;4559;47.252;9.592;2023-01-15T15:49:15;5.50;99.90
9049;DHT22;4559;47.252;9.592;2023-01-15T15:51:51;5.60;99.90
9049;DHT22;4559;47.252;9.592;2023-01-15T15:54:25;5.60;99.90
9049;DHT22;4559;47.252;9.592;2023-01-15T15:59:34;5.60;99.90
9049;DHT22;4559;47.252;9.592;2023-01-15T16:04:34;5.60;99.90
9049;DHT22;4559;47.252;9.592;2023-01-15T16:07:11;5.60;99.90
9049;DHT22;4559;47.252;9.592;2023-01-15T16:09:37;5.50;99.90
9049;DHT22;4559;47.252;9.592;2023-01-15T16:12:04;5.60;99.90
9049;DHT22;4559;47.252;9.592;2023-01-15T16:14:33;5.70;99.90
9049;DHT22;4559;47.252;9.592;2023-01-15T16:17:00;5.70;99.90
9049;DHT22;4559;47.252;9.592;2023-01-15T16:19:25;5.70;99.90
9049;DHT22;4559;47.252;9.592;2023-01-15T16:21:52;5.70;99.90
9049;DHT22;4559;47.252;9.592;2023-01-15T16:24:23;5.70;99.90
9049;DHT22;4559;47.252;9.592;2023-01-15T16:27:06;5.70;99.90
9049;DHT22;4559;47.252;9.592;2023-01-15T16:29:35;5.70;99.90
9049;DHT22;4559;47.252;9.592;2023-01-15T16:32:09;5.70;99.90
9049;DHT22;4559;47.252;9.592;2023-01-15T16:34:36;5.60;99.90
9049;DHT22;4559;47.252;9.592;2023-01-15T16:37:01;5.70;99.90
9049;DHT22;4559;47.252;9.592;2023-01-15T16:41:58;5.60;99.90
9049;DHT22;4559;47.252;9.592;2023-01-15T16:44:32;5.60;99.90
9049;DHT22;4559;47.252;9.592;2023-01-15T16:47:00;5.50;99.90
9049;DHT22;4559;47.252;9.592;2023-01-15T16:49:28;5.40;99.90
9049;DHT22;4559;47.252;9.592;2023-01-15T16:51:59;5.40;99.90
9049;DHT22;4559;47.252;9.592;2023-01-15T16:56:55;5.30;99.90
9049;DHT22;4559;47.252;9.592;2023-01-15T17:04:38;5.30;99.90
9049;DHT22;4559;47.252;9.592;2023-01-15T17:07:06;5.30;99.90
9049;DHT22;4559;47.252;9.592;2023-01-15T17:09:34;5.40;99.90
9049;DHT22;4559;47.252;9.592;2023-01-15T17:12:06;5.40;99.90
9049;DHT22;4559;47.252;9.592;2023-01-15T17:14:33;5.40;99.90
9049;DHT22;4559;47.252;9.592;2023-01-15T17:19:45;5.30;99.90
9049;DHT22;4559;47.252;9.592;2023-01-15T17:22:25;5.20;99.90
9049;DHT22;4559;47.252;9.592;2023-01-15T17:24:54;5.20;99.90
9049;DHT22;4559;47.252;9.592;2023-01-15T17:27:21;5.20;99.90
9049;DHT22;4559;47.252;9.592;2023-01-15T17:29:47;5.20;99.90
9049;DHT22;4559;47.252;9.592;2023-01-15T17:32:15;5.10;99.90
9049;DHT22;4559;47.252;9.592;2023-01-15T17:34:41;5.10;99.90
9049;DHT22;4559;47.252;9.592;2023-01-15T17:37:07;5.00;99.90
9049;DHT22;4559;47.252;9.592;2023-01-15T17:39:32;5.00;99.90
9049;DHT22;4559;47.252;9.592;2023-01-15T17:41:58;4.90;99.90
9049;DHT22;4559;47.252;9.592;2023-01-15T17:44:24;4.90;99.90
9049;DHT22;4559;47.252;9.592;2023-01-15T17:46:50;4.80;99.90
9049;DHT22;4559;47.252;9.592;2023-01-15T17:49:15;4.80;99.90
9049;DHT22;4559;47.252;9.592;2023-01-15T17:51:41;4.70;99.90
9049;DHT22;4559;47.252;9.592;2023-01-15T17:54:07;4.60;99.90
9049;DHT22;4559;47.252;9.592;2023-01-15T17:56:33;4.60;99.90
9049;DHT22;4559;47.252;9.592;2023-01-15T17:59:17;4.50;99.90
9049;DHT22;4559;47.252;9.592;2023-01-15T18:02:02;4.40;99.90
9049;DHT22;4559;47.252;9.592;2023-01-15T18:04:50;4.40;99.90
9049;DHT22;4559;47.252;9.592;2023-01-15T18:07:37;4.40;99.90
9049;DHT22;4559;47.252;9.592;2023-01-15T18:10:07;4.20;99.90
9049;DHT22;4559;47.252;9.592;2023-01-15T18:12:33;4.20;99.90
9049;DHT22;4559;47.252;9.592;2023-01-15T18:14:59;4.20;99.90
9049;DHT22;4559;47.252;9.592;2023-01-15T18:17:24;4.30;99.90
9049;DHT22;4559;47.252;9.592;2023-01-15T18:19:50;4.20;99.90
9049;DHT22;4559;47.252;9.592;2023-01-15T18:22:16;4.10;99.90
9049;DHT22;4559;47.252;9.592;2023-01-15T18:24:43;4.10;99.90
9049;DHT22;4559;47.252;9.592;2023-01-15T18:27:09;4.10;99.90
9049;DHT22;4559;47.252;9.592;2023-01-15T18:29:34;4.10;99.90
9049;DHT22;4559;47.252;9.592;2023-01-15T18:32:07;4.10;99.90
9049;DHT22;4559;47.252;9.592;2023-01-15T18:34:34;4.10;99.90
9049;DHT22;4559;47.252;9.592;2023-01-15T18:36:59;4.00;99.90
9049;DHT22;4559;47.252;9.592;2023-01-15T18:39:25;4.10;99.90
9049;DHT22;4559;47.252;9.592;2023-01-15T18:41:51;4.00;99.90
9049;DHT22;4559;47.252;9.592;2023-01-15T18:44:19;4.00;99.90
9049;DHT22;4559;47.252;9.592;2023-01-15T18:47:10;3.90;99.90
9049;DHT22;4559;47.252;9.592;2023-01-15T18:49:37;3.80;99.90
9049;DHT22;4559;47.252;9.592;2023-01-15T18:52:03;3.80;99.90
9049;DHT22;4559;47.252;9.592;2023-01-15T18:54:47;3.80;99.90
9049;DHT22;4559;47.252;9.592;2023-01-15T18:57:13;3.80;99.90
9049;DHT22;4559;47.252;9.592;2023-01-15T18:59:40;3.80;99.90
9049;DHT22;4559;47.252;9.592;2023-01-15T19:02:06;3.80;99.90
9049;DHT22;4559;47.252;9.592;2023-01-15T19:04:31;3.80;99.90